sensor_id;sensor_type;location;lat;lon;timestamp;temperature;humidity
11284;DHT22;5698;47.332;11.180;2024-01-25T00:00:26;4.90;99.90
11284;DHT22;5698;47.332;11.180;2024-01-25T00:02:53;4.80;99.90
11284;DHT22;5698;47.332;11.180;2024-01-25T00:05:22;4.80;99.90
11284;DHT22;5698;47.332;11.180;2024-01-25T00:07:49;4.80;99.90
11284;DHT22;5698;47.332;11.180;2024-01-25T00:10:17;4.80;99.90
11284;DHT22;5698;47.332;11.180;2024-01-25T00:12:44;4.80;99.90
11284;DHT22;5698;47.332;11.180;2024-01-25T00:15:11;4.80;99.90
11284;DHT22;5698;47.332;11.180;2024-01-25T00:17:39;4.80;99.90
11284;DHT22;5698;47.332;11.180;2024-01-25T00:20:06;4.90;99.90
11284;DHT22;5698;47.332;11.180;2024-01-25T00:22:37;4.90;99.90
11284;DHT22;5698;47.332;11.180;2024-01-25T00:25:05;4.80;99.90
11284;DHT22;5698;47.332;11.180;2024-01-25T00:27:32;4.80;99.90
11284;DHT22;5698;47.332;11.180;2024-01-25T00:29:59;4.70;99.90
11284;DHT22;5698;47.332;11.180;2024-01-25T00:32:26;4.70;99.90
11284;DHT22;5698;47.332;11.180;2024-01-25T00:34:54;4.70;99.90
11284;DHT22;5698;47.332;11.180;2024-01-25T00:37:21;4.70;99.90
11284;DHT22;5698;47.332;11.180;2024-01-25T00:39:50;4.70;99.90
11284;DHT22;5698;47.332;11.180;2024-01-25T00:42:21;4.70;99.90
11284;DHT22;5698;47.332;11.180;2024-01-25T00:44:49;4.70;99.90
11284;DHT22;5698;47.332;11.180;2024-01-25T00:47:16;4.70;99.90
11284;DHT22;5698;47.332;11.180;2024-01-25T00:49:44;4.70;99.90
11284;DHT22;5698;47.332;11.180;2024-01-25T00:52:12;4.70;99.90
11284;DHT22;5698;47.332;11.180;2024-01-25T00:54:39;4.70;99.90
11284;DHT22;5698;47.332;11.180;2024-01-25T00:57:09;4.70;99.90
11284;DHT22;5698;47.332;11.180;2024-01-25T00:59:37;4.60;99.90
11284;DHT22;5698;47.332;11.180;2024-01-25T01:02:05;4.60;99.90
11284;DHT22;5698;47.332;11.180;2024-01-25T01:04:35;4.50;99.90
11284;DHT22;5698;47.332;11.180;2024-01-25T01:07:03;4.50;99.90
11284;DHT22;5698;47.332;11.180;2024-01-25T01:09:30;4.50;99.90
11284;DHT22;5698;47.332;11.180;2024-01-25T01:11:58;4.50;99.90
11284;DHT22;5698;47.332;11.180;2024-01-25T01:14:26;4.50;99.90
11284;DHT22;5698;47.332;11.180;2024-01-25T01:16:53;4.50;99.90
11284;DHT22;5698;47.332;11.180;2024-01-25T01:19:21;4.50;99.90
11284;DHT22;5698;47.332;11.180;2024-01-25T01:21:48;4.50;99.90
11284;DHT22;5698;47.332;11.180;2024-01-25T01:24:15;4.60;99.90
11284;DHT22;5698;47.332;11.180;2024-01-25T01:26:42;4.50;99.90
11284;DHT22;5698;47.332;11.180;2024-01-25T01:29:09;4.50;99.90
11284;DHT22;5698;47.332;11.180;2024-01-25T01:31:37;4.50;99.90
11284;DHT22;5698;47.332;11.180;2024-01-25T01:34:04;4.50;99.90
11284;DHT22;5698;47.332;11.180;2024-01-25T01:36:31;4.50;99.90
11284;DHT22;5698;47.332;11.180;2024-01-25T01:38:58;4.40;99.90
11284;DHT22;5698;47.332;11.180;2024-01-25T01:41:25;4.40;99.90
11284;DHT22;5698;47.332;11.180;2024-01-25T01:43:52;4.40;99.90
11284;DHT22;5698;47.332;11.180;2024-01-25T01:46:26;4.30;99.90
11284;DHT22;5698;47.332;11.180;2024-01-25T01:48:58;4.30;99.90
11284;DHT22;5698;47.332;11.180;2024-01-25T01:51:25;4.30;99.90
11284;DHT22;5698;47.332;11.180;2024-01-25T01:53:53;4.30;99.90
11284;DHT22;5698;47.332;11.180;2024-01-25T01:56:21;4.20;99.90
11284;DHT22;5698;47.332;11.180;2024-01-25T01:58:49;4.20;99.90
11284;DHT22;5698;47.332;11.180;2024-01-25T02:01:16;4.20;99.90
11284;DHT22;5698;47.332;11.180;2024-01-25T02:03:43;4.20;99.90
11284;DHT22;5698;47.332;11.180;2024-01-25T02:06:12;4.20;99.90
11284;DHT22;5698;47.332;11.180;2024-01-25T02:08:39;4.20;99.90
11284;DHT22;5698;47.332;11.180;2024-01-25T02:11:06;4.20;99.90
11284;DHT22;5698;47.332;11.180;2024-01-25T02:13:34;4.10;99.90
11284;DHT22;5698;47.332;11.180;2024-01-25T02:16:01;4.10;99.90
11284;DHT22;5698;47.332;11.180;2024-01-25T02:18:28;4.10;99.90
11284;DHT22;5698;47.332;11.180;2024-01-25T02:20:55;4.10;99.90
11284;DHT22;5698;47.332;11.180;2024-01-25T02:23:24;4.10;99.90
11284;DHT22;5698;47.332;11.180;2024-01-25T02:25:51;4.00;99.90
11284;DHT22;5698;47.332;11.180;2024-01-25T02:28:18;4.00;99.90
11284;DHT22;5698;47.332;11.180;2024-01-25T02:30:45;4.00;99.90
11284;DHT22;5698;47.332;11.180;2024-01-25T02:33:12;4.00;99.90
11284;DHT22;5698;47.332;11.180;2024-01-25T02:35:39;4.00;99.90
11284;DHT22;5698;47.332;11.180;2024-01-25T02:38:06;4.00;99.90
11284;DHT22;5698;47.332;11.180;2024-01-25T02:40:34;3.90;99.90
11284;DHT22;5698;47.332;11.180;2024-01-25T02:43:01;3.90;99.90
11284;DHT22;5698;47.332;11.180;2024-01-25T02:45:28;3.90;99.90
11284;DHT22;5698;47.332;11.180;2024-01-25T02:47:55;3.90;99.90
11284;DHT22;5698;47.332;11.180;2024-01-25T02:50:22;3.90;99.90
11284;DHT22;5698;47.332;11.180;2024-01-25T02:52:50;3.90;99.90
11284;DHT22;5698;47.332;11.180;2024-01-25T02:55:18;3.90;99.90
11284;DHT22;5698;47.332;11.180;2024-01-25T02:57:47;3.90;99.90
11284;DHT22;5698;47.332;11.180;2024-01-25T03:00:15;3.80;99.90
11284;DHT22;5698;47.332;11.180;2024-01-25T03:02:42;3.80;99.90
11284;DHT22;5698;47.332;11.180;2024-01-25T03:05:09;3.80;99.90
11284;DHT22;5698;47.332;11.180;2024-01-25T03:07:36;3.80;99.90
11284;DHT22;5698;47.332;11.180;2024-01-25T03:10:03;3.70;99.90
11284;DHT22;5698;47.332;11.180;2024-01-25T03:12:30;3.70;99.90
11284;DHT22;5698;47.332;11.180;2024-01-25T03:14:58;3.70;99.90
11284;DHT22;5698;47.332;11.180;2024-01-25T03:17:25;3.70;99.90
11284;DHT22;5698;47.332;11.180;2024-01-25T03:19:52;3.70;99.90
11284;DHT22;5698;47.332;11.180;2024-01-25T03:22:20;3.60;99.90
11284;DHT22;5698;47.332;11.180;2024-01-25T03:24:48;3.60;99.90
11284;DHT22;5698;47.332;11.180;2024-01-25T03:27:15;3.60;99.90
11284;DHT22;5698;47.332;11.180;2024-01-25T03:29:42;3.60;99.90
11284;DHT22;5698;47.332;11.180;2024-01-25T03:32:10;3.60;99.90
11284;DHT22;5698;47.332;11.180;2024-01-25T03:34:38;3.60;99.90
11284;DHT22;5698;47.332;11.180;2024-01-25T03:37:05;3.50;99.90
11284;DHT22;5698;47.332;11.180;2024-01-25T03:39:32;3.50;99.90
11284;DHT22;5698;47.332;11.180;2024-01-25T03:41:59;3.50;99.90
11284;DHT22;5698;47.332;11.180;2024-01-25T03:44:26;3.50;99.90
11284;DHT22;5698;47.332;11.180;2024-01-25T03:46:53;3.40;99.90
11284;DHT22;5698;47.332;11.180;2024-01-25T03:49:21;3.40;99.90
11284;DHT22;5698;47.332;11.180;2024-01-25T03:51:49;3.40;99.90
11284;DHT22;5698;47.332;11.180;2024-01-25T03:54:16;3.40;99.90
11284;DHT22;5698;47.332;11.180;2024-01-25T03:56:43;3.40;99.90
11284;DHT22;5698;47.332;11.180;2024-01-25T03:59:10;3.30;99.90
11284;DHT22;5698;47.332;11.180;2024-01-25T04:01:43;3.30;99.90
11284;DHT22;5698;47.332;11.180;2024-01-25T04:04:10;3.30;99.90
11284;DHT22;5698;47.332;11.180;2024-01-25T04:06:41;3.30;99.90
11284;DHT22;5698;47.332;11.180;2024-01-25T04:09:09;3.30;99.90
11284;DHT22;5698;47.332;11.180;2024-01-25T04:11:36;3.30;99.90
11284;DHT22;5698;47.332;11.180;2024-01-25T04:14:04;3.20;99.90
11284;DHT22;5698;47.332;11.180;2024-01-25T04:16:31;3.20;99.90
11284;DHT22;5698;47.332;11.180;2024-01-25T04:18:58;3.20;99.90
11284;DHT22;5698;47.332;11.180;2024-01-25T04:21:26;3.20;99.90
11284;DHT22;5698;47.332;11.180;2024-01-25T04:23:55;3.20;99.90
11284;DHT22;5698;47.332;11.180;2024-01-25T04:26:22;3.10;99.90
11284;DHT22;5698;47.332;11.180;2024-01-25T04:28:49;3.10;99.90
11284;DHT22;5698;47.332;11.180;2024-01-25T04:31:16;3.10;99.90
11284;DHT22;5698;47.332;11.180;2024-01-25T04:33:43;3.10;99.90
11284;DHT22;5698;47.332;11.180;2024-01-25T04:36:10;3.10;99.90
11284;DHT22;5698;47.332;11.180;2024-01-25T04:38:37;3.10;99.90
11284;DHT22;5698;47.332;11.180;2024-01-25T04:41:05;3.10;99.90
11284;DHT22;5698;47.332;11.180;2024-01-25T04:43:34;3.10;99.90
11284;DHT22;5698;47.332;11.180;2024-01-25T04:46:02;3.10;99.90
11284;DHT22;5698;47.332;11.180;2024-01-25T04:48:29;3.00;99.90
11284;DHT22;5698;47.332;11.180;2024-01-25T04:50:56;3.00;99.90
11284;DHT22;5698;47.332;11.180;2024-01-25T04:53:24;3.00;99.90
11284;DHT22;5698;47.332;11.180;2024-01-25T04:55:53;3.00;99.90
11284;DHT22;5698;47.332;11.180;2024-01-25T04:58:21;3.00;99.90
11284;DHT22;5698;47.332;11.180;2024-01-25T05:00:48;2.90;99.90
11284;DHT22;5698;47.332;11.180;2024-01-25T05:03:16;3.00;99.90
11284;DHT22;5698;47.332;11.180;2024-01-25T05:05:43;2.90;99.90
11284;DHT22;5698;47.332;11.180;2024-01-25T05:08:10;2.90;99.90
11284;DHT22;5698;47.332;11.180;2024-01-25T05:10:37;2.90;99.90
11284;DHT22;5698;47.332;11.180;2024-01-25T05:13:04;2.90;99.90
11284;DHT22;5698;47.332;11.180;2024-01-25T05:15:33;2.90;99.90
11284;DHT22;5698;47.332;11.180;2024-01-25T05:18:00;2.80;99.90
11284;DHT22;5698;47.332;11.180;2024-01-25T05:20:27;2.80;99.90
11284;DHT22;5698;47.332;11.180;2024-01-25T05:22:58;2.80;99.90
11284;DHT22;5698;47.332;11.180;2024-01-25T05:25:25;2.80;99.90
11284;DHT22;5698;47.332;11.180;2024-01-25T05:27:53;2.80;99.90
11284;DHT22;5698;47.332;11.180;2024-01-25T05:30:20;2.80;99.90
11284;DHT22;5698;47.332;11.180;2024-01-25T05:32:48;2.80;99.90
11284;DHT22;5698;47.332;11.180;2024-01-25T05:35:16;2.80;99.90
11284;DHT22;5698;47.332;11.180;2024-01-25T05:37:44;2.80;99.90
11284;DHT22;5698;47.332;11.180;2024-01-25T05:40:11;2.80;99.90
11284;DHT22;5698;47.332;11.180;2024-01-25T05:42:38;2.80;99.90
11284;DHT22;5698;47.332;11.180;2024-01-25T05:45:06;2.70;99.90
11284;DHT22;5698;47.332;11.180;2024-01-25T05:47:34;2.70;99.90
11284;DHT22;5698;47.332;11.180;2024-01-25T05:50:03;2.70;99.90
11284;DHT22;5698;47.332;11.180;2024-01-25T05:52:30;2.70;99.90
11284;DHT22;5698;47.332;11.180;2024-01-25T05:54:58;2.70;99.90
11284;DHT22;5698;47.332;11.180;2024-01-25T05:57:25;2.60;99.90
11284;DHT22;5698;47.332;11.180;2024-01-25T05:59:53;2.60;99.90
11284;DHT22;5698;47.332;11.180;2024-01-25T06:02:20;2.60;99.90
11284;DHT22;5698;47.332;11.180;2024-01-25T06:04:47;2.50;99.90
11284;DHT22;5698;47.332;11.180;2024-01-25T06:07:16;2.60;99.90
11284;DHT22;5698;47.332;11.180;2024-01-25T06:09:42;2.50;99.90
11284;DHT22;5698;47.332;11.180;2024-01-25T06:12:10;2.50;99.90
11284;DHT22;5698;47.332;11.180;2024-01-25T06:14:36;2.50;99.90
11284;DHT22;5698;47.332;11.180;2024-01-25T06:17:04;2.50;99.90
11284;DHT22;5698;47.332;11.180;2024-01-25T06:19:31;2.50;99.90
11284;DHT22;5698;47.332;11.180;2024-01-25T06:21:59;2.50;99.90
11284;DHT22;5698;47.332;11.180;2024-01-25T06:24:27;2.40;99.90
11284;DHT22;5698;47.332;11.180;2024-01-25T06:26:54;2.40;99.90
11284;DHT22;5698;47.332;11.180;2024-01-25T06:29:21;2.40;99.90
11284;DHT22;5698;47.332;11.180;2024-01-25T06:31:48;2.40;99.90
11284;DHT22;5698;47.332;11.180;2024-01-25T06:34:15;2.40;99.90
11284;DHT22;5698;47.332;11.180;2024-01-25T06:36:42;2.30;99.90
11284;DHT22;5698;47.332;11.180;2024-01-25T06:39:09;2.30;99.90
11284;DHT22;5698;47.332;11.180;2024-01-25T06:41:38;2.30;99.90
11284;DHT22;5698;47.332;11.180;2024-01-25T06:44:05;2.30;99.90
11284;DHT22;5698;47.332;11.180;2024-01-25T06:46:32;2.30;99.90
11284;DHT22;5698;47.332;11.180;2024-01-25T06:48:59;2.30;99.90
11284;DHT22;5698;47.332;11.180;2024-01-25T06:51:26;2.20;99.90
11284;DHT22;5698;47.332;11.180;2024-01-25T06:53:53;2.30;99.90
11284;DHT22;5698;47.332;11.180;2024-01-25T06:56:20;2.20;99.90
11284;DHT22;5698;47.332;11.180;2024-01-25T06:58:48;2.20;99.90
11284;DHT22;5698;47.332;11.180;2024-01-25T07:01:20;2.20;99.90
11284;DHT22;5698;47.332;11.180;2024-01-25T07:03:47;2.20;99.90
11284;DHT22;5698;47.332;11.180;2024-01-25T07:06:16;2.10;99.90
11284;DHT22;5698;47.332;11.180;2024-01-25T07:08:43;2.20;99.90
11284;DHT22;5698;47.332;11.180;2024-01-25T07:11:10;2.10;99.90
11284;DHT22;5698;47.332;11.180;2024-01-25T07:13:38;2.10;99.90
11284;DHT22;5698;47.332;11.180;2024-01-25T07:16:06;2.10;99.90
11284;DHT22;5698;47.332;11.180;2024-01-25T07:18:33;2.10;99.90
11284;DHT22;5698;47.332;11.180;2024-01-25T07:21:01;2.10;99.90
11284;DHT22;5698;47.332;11.180;2024-01-25T07:23:29;2.10;99.90
11284;DHT22;5698;47.332;11.180;2024-01-25T07:25:56;2.10;99.90
11284;DHT22;5698;47.332;11.180;2024-01-25T07:28:23;2.10;99.90
11284;DHT22;5698;47.332;11.180;2024-01-25T07:30:51;2.00;99.90
11284;DHT22;5698;47.332;11.180;2024-01-25T07:33:19;2.00;99.90
11284;DHT22;5698;47.332;11.180;2024-01-25T07:35:46;2.00;99.90
11284;DHT22;5698;47.332;11.180;2024-01-25T07:38:13;2.00;99.90
11284;DHT22;5698;47.332;11.180;2024-01-25T07:40:41;2.00;99.90
11284;DHT22;5698;47.332;11.180;2024-01-25T07:43:08;2.00;99.90
11284;DHT22;5698;47.332;11.180;2024-01-25T07:45:35;1.90;99.90
11284;DHT22;5698;47.332;11.180;2024-01-25T07:48:02;1.90;99.90
11284;DHT22;5698;47.332;11.180;2024-01-25T07:50:31;1.90;99.90
11284;DHT22;5698;47.332;11.180;2024-01-25T07:52:58;1.90;99.90
11284;DHT22;5698;47.332;11.180;2024-01-25T07:55:26;2.00;99.90
11284;DHT22;5698;47.332;11.180;2024-01-25T07:57:55;2.00;99.90
11284;DHT22;5698;47.332;11.180;2024-01-25T08:00:22;2.00;99.90
11284;DHT22;5698;47.332;11.180;2024-01-25T08:02:49;2.00;99.90
11284;DHT22;5698;47.332;11.180;2024-01-25T08:05:16;2.00;99.90
11284;DHT22;5698;47.332;11.180;2024-01-25T08:07:46;2.00;99.90
11284;DHT22;5698;47.332;11.180;2024-01-25T08:10:14;2.00;99.90
11284;DHT22;5698;47.332;11.180;2024-01-25T08:12:41;1.90;99.90
11284;DHT22;5698;47.332;11.180;2024-01-25T08:15:10;2.00;99.90
11284;DHT22;5698;47.332;11.180;2024-01-25T08:17:38;2.00;99.90
11284;DHT22;5698;47.332;11.180;2024-01-25T08:20:06;2.00;99.90
11284;DHT22;5698;47.332;11.180;2024-01-25T08:22:34;1.90;99.90
11284;DHT22;5698;47.332;11.180;2024-01-25T08:25:03;1.90;99.90
11284;DHT22;5698;47.332;11.180;2024-01-25T08:27:30;1.90;99.90
11284;DHT22;5698;47.332;11.180;2024-01-25T08:29:57;1.90;99.90
11284;DHT22;5698;47.332;11.180;2024-01-25T08:32:25;1.90;99.90
11284;DHT22;5698;47.332;11.180;2024-01-25T08:34:52;1.90;99.90
11284;DHT22;5698;47.332;11.180;2024-01-25T08:37:19;1.90;99.90
11284;DHT22;5698;47.332;11.180;2024-01-25T08:39:46;1.90;99.90
11284;DHT22;5698;47.332;11.180;2024-01-25T08:42:18;1.90;99.90
11284;DHT22;5698;47.332;11.180;2024-01-25T08:44:46;1.90;99.90
11284;DHT22;5698;47.332;11.180;2024-01-25T08:47:15;1.90;99.90
11284;DHT22;5698;47.332;11.180;2024-01-25T08:49:42;1.90;99.90
11284;DHT22;5698;47.332;11.180;2024-01-25T08:52:09;1.90;99.90
11284;DHT22;5698;47.332;11.180;2024-01-25T08:54:36;1.90;99.90
11284;DHT22;5698;47.332;11.180;2024-01-25T08:57:04;1.90;99.90
11284;DHT22;5698;47.332;11.180;2024-01-25T08:59:34;1.90;99.90
11284;DHT22;5698;47.332;11.180;2024-01-25T09:02:03;1.90;99.90
11284;DHT22;5698;47.332;11.180;2024-01-25T09:04:31;1.90;99.90
11284;DHT22;5698;47.332;11.180;2024-01-25T09:06:59;1.90;99.90
11284;DHT22;5698;47.332;11.180;2024-01-25T09:09:26;1.90;99.90
11284;DHT22;5698;47.332;11.180;2024-01-25T09:11:53;1.90;99.90
11284;DHT22;5698;47.332;11.180;2024-01-25T09:14:20;1.90;99.90
11284;DHT22;5698;47.332;11.180;2024-01-25T09:16:49;1.90;99.90
11284;DHT22;5698;47.332;11.180;2024-01-25T09:19:16;1.90;99.90
11284;DHT22;5698;47.332;11.180;2024-01-25T09:21:43;1.90;99.90
11284;DHT22;5698;47.332;11.180;2024-01-25T09:24:10;2.00;99.90
11284;DHT22;5698;47.332;11.180;2024-01-25T09:26:37;2.00;99.90
11284;DHT22;5698;47.332;11.180;2024-01-25T09:29:04;1.90;99.90
11284;DHT22;5698;47.332;11.180;2024-01-25T09:31:31;2.00;99.90
11284;DHT22;5698;47.332;11.180;2024-01-25T09:34:00;1.90;99.90
11284;DHT22;5698;47.332;11.180;2024-01-25T09:36:27;2.00;99.90
11284;DHT22;5698;47.332;11.180;2024-01-25T09:38:54;1.90;99.90
11284;DHT22;5698;47.332;11.180;2024-01-25T09:41:21;1.90;99.90
11284;DHT22;5698;47.332;11.180;2024-01-25T09:43:48;1.90;99.90
11284;DHT22;5698;47.332;11.180;2024-01-25T09:46:16;1.90;99.90
11284;DHT22;5698;47.332;11.180;2024-01-25T09:48:43;1.90;99.90
11284;DHT22;5698;47.332;11.180;2024-01-25T09:51:13;1.90;99.90
11284;DHT22;5698;47.332;11.180;2024-01-25T09:53:40;1.90;99.90
11284;DHT22;5698;47.332;11.180;2024-01-25T09:56:09;1.90;99.90
11284;DHT22;5698;47.332;11.180;2024-01-25T09:58:38;1.90;99.90
11284;DHT22;5698;47.332;11.180;2024-01-25T10:01:08;1.90;99.90
11284;DHT22;5698;47.332;11.180;2024-01-25T10:03:35;1.90;99.90
11284;DHT22;5698;47.332;11.180;2024-01-25T10:06:03;1.90;99.90
11284;DHT22;5698;47.332;11.180;2024-01-25T10:08:31;1.90;99.90
11284;DHT22;5698;47.332;11.180;2024-01-25T10:10:58;1.90;99.90
11284;DHT22;5698;47.332;11.180;2024-01-25T10:13:26;1.90;99.90
11284;DHT22;5698;47.332;11.180;2024-01-25T10:15:53;1.90;99.90
11284;DHT22;5698;47.332;11.180;2024-01-25T10:18:22;1.90;99.90
11284;DHT22;5698;47.332;11.180;2024-01-25T10:20:49;1.90;99.90
11284;DHT22;5698;47.332;11.180;2024-01-25T10:23:16;1.90;99.90
11284;DHT22;5698;47.332;11.180;2024-01-25T10:25:45;1.90;99.90
11284;DHT22;5698;47.332;11.180;2024-01-25T10:28:12;1.90;99.90
11284;DHT22;5698;47.332;11.180;2024-01-25T10:30:39;1.90;99.90
11284;DHT22;5698;47.332;11.180;2024-01-25T10:33:06;2.00;99.90
11284;DHT22;5698;47.332;11.180;2024-01-25T10:35:36;2.00;99.90
11284;DHT22;5698;47.332;11.180;2024-01-25T10:38:04;2.00;99.90
11284;DHT22;5698;47.332;11.180;2024-01-25T10:40:32;2.00;99.90
11284;DHT22;5698;47.332;11.180;2024-01-25T10:43:01;2.00;99.90
11284;DHT22;5698;47.332;11.180;2024-01-25T10:45:28;2.00;99.90
11284;DHT22;5698;47.332;11.180;2024-01-25T10:47:55;2.00;99.90
11284;DHT22;5698;47.332;11.180;2024-01-25T10:50:22;2.10;99.90
11284;DHT22;5698;47.332;11.180;2024-01-25T10:52:53;2.10;99.90
11284;DHT22;5698;47.332;11.180;2024-01-25T10:55:20;2.10;99.90
11284;DHT22;5698;47.332;11.180;2024-01-25T10:57:48;2.10;99.90
11284;DHT22;5698;47.332;11.180;2024-01-25T11:00:16;2.10;99.90
11284;DHT22;5698;47.332;11.180;2024-01-25T11:02:44;2.10;99.90
11284;DHT22;5698;47.332;11.180;2024-01-25T11:05:12;2.20;99.90
11284;DHT22;5698;47.332;11.180;2024-01-25T11:07:44;2.20;99.90
11284;DHT22;5698;47.332;11.180;2024-01-25T11:10:14;2.20;99.90
11284;DHT22;5698;47.332;11.180;2024-01-25T11:12:54;2.20;99.90
11284;DHT22;5698;47.332;11.180;2024-01-25T11:15:29;2.30;99.90
11284;DHT22;5698;47.332;11.180;2024-01-25T11:17:56;2.30;99.90
11284;DHT22;5698;47.332;11.180;2024-01-25T11:20:25;2.30;99.90
11284;DHT22;5698;47.332;11.180;2024-01-25T11:22:56;2.30;99.90
11284;DHT22;5698;47.332;11.180;2024-01-25T11:25:27;2.30;99.90
11284;DHT22;5698;47.332;11.180;2024-01-25T11:27:54;2.30;99.90
11284;DHT22;5698;47.332;11.180;2024-01-25T11:30:23;2.30;99.90
11284;DHT22;5698;47.332;11.180;2024-01-25T11:32:50;2.30;99.90
11284;DHT22;5698;47.332;11.180;2024-01-25T11:35:17;2.40;99.90
11284;DHT22;5698;47.332;11.180;2024-01-25T11:37:44;2.40;99.90
11284;DHT22;5698;47.332;11.180;2024-01-25T11:40:12;2.50;99.90
11284;DHT22;5698;47.332;11.180;2024-01-25T11:42:41;2.50;99.90
11284;DHT22;5698;47.332;11.180;2024-01-25T11:45:10;2.50;99.90
11284;DHT22;5698;47.332;11.180;2024-01-25T11:47:39;2.60;99.90
11284;DHT22;5698;47.332;11.180;2024-01-25T11:50:08;2.60;99.90
11284;DHT22;5698;47.332;11.180;2024-01-25T11:52:36;2.60;99.90
11284;DHT22;5698;47.332;11.180;2024-01-25T11:55:04;2.60;99.90
11284;DHT22;5698;47.332;11.180;2024-01-25T11:57:34;2.70;99.90
11284;DHT22;5698;47.332;11.180;2024-01-25T12:00:02;2.70;99.90
11284;DHT22;5698;47.332;11.180;2024-01-25T12:02:30;2.70;99.90
11284;DHT22;5698;47.332;11.180;2024-01-25T12:04:59;2.80;99.90
11284;DHT22;5698;47.332;11.180;2024-01-25T12:07:30;2.80;99.90
11284;DHT22;5698;47.332;11.180;2024-01-25T12:09:58;2.80;99.90
11284;DHT22;5698;47.332;11.180;2024-01-25T12:12:27;2.80;99.90
11284;DHT22;5698;47.332;11.180;2024-01-25T12:14:57;2.90;99.90
11284;DHT22;5698;47.332;11.180;2024-01-25T12:17:26;2.90;99.90
11284;DHT22;5698;47.332;11.180;2024-01-25T12:19:55;2.90;99.90
11284;DHT22;5698;47.332;11.180;2024-01-25T12:22:24;2.90;99.90
11284;DHT22;5698;47.332;11.180;2024-01-25T12:24:53;2.90;99.90
11284;DHT22;5698;47.332;11.180;2024-01-25T12:27:21;2.90;99.90
11284;DHT22;5698;47.332;11.180;2024-01-25T12:29:49;3.00;99.90
11284;DHT22;5698;47.332;11.180;2024-01-25T12:32:16;3.00;99.90
11284;DHT22;5698;47.332;11.180;2024-01-25T12:34:53;3.00;99.90
11284;DHT22;5698;47.332;11.180;2024-01-25T12:37:21;3.00;99.90
11284;DHT22;5698;47.332;11.180;2024-01-25T12:39:51;3.00;99.90
11284;DHT22;5698;47.332;11.180;2024-01-25T12:42:18;3.00;99.90
11284;DHT22;5698;47.332;11.180;2024-01-25T12:44:45;3.10;99.90
11284;DHT22;5698;47.332;11.180;2024-01-25T12:47:12;3.10;99.90
11284;DHT22;5698;47.332;11.180;2024-01-25T12:49:40;3.10;99.90
11284;DHT22;5698;47.332;11.180;2024-01-25T12:52:08;3.10;99.90
11284;DHT22;5698;47.332;11.180;2024-01-25T12:54:35;3.20;99.90
11284;DHT22;5698;47.332;11.180;2024-01-25T12:57:04;3.20;99.90
11284;DHT22;5698;47.332;11.180;2024-01-25T12:59:32;3.20;99.90
11284;DHT22;5698;47.332;11.180;2024-01-25T13:01:59;3.20;99.90
11284;DHT22;5698;47.332;11.180;2024-01-25T13:04:26;3.30;99.90
11284;DHT22;5698;47.332;11.180;2024-01-25T13:06:54;3.30;99.90
11284;DHT22;5698;47.332;11.180;2024-01-25T13:09:21;3.30;99.90
11284;DHT22;5698;47.332;11.180;2024-01-25T13:11:48;3.30;99.90
11284;DHT22;5698;47.332;11.180;2024-01-25T13:14:18;3.40;99.90
11284;DHT22;5698;47.332;11.180;2024-01-25T13:16:45;3.40;99.90
11284;DHT22;5698;47.332;11.180;2024-01-25T13:19:13;3.40;99.90
11284;DHT22;5698;47.332;11.180;2024-01-25T13:21:41;3.40;99.90
11284;DHT22;5698;47.332;11.180;2024-01-25T13:24:08;3.50;99.90
11284;DHT22;5698;47.332;11.180;2024-01-25T13:26:36;3.50;99.90
11284;DHT22;5698;47.332;11.180;2024-01-25T13:29:03;3.50;99.90
11284;DHT22;5698;47.332;11.180;2024-01-25T13:31:31;3.50;99.90
11284;DHT22;5698;47.332;11.180;2024-01-25T13:33:58;3.60;99.90
11284;DHT22;5698;47.332;11.180;2024-01-25T13:36:25;3.60;99.90
11284;DHT22;5698;47.332;11.180;2024-01-25T13:38:52;3.60;99.90
11284;DHT22;5698;47.332;11.180;2024-01-25T13:41:19;3.60;99.90
11284;DHT22;5698;47.332;11.180;2024-01-25T13:43:46;3.60;99.90
11284;DHT22;5698;47.332;11.180;2024-01-25T13:46:13;3.60;99.90
11284;DHT22;5698;47.332;11.180;2024-01-25T13:48:42;3.60;99.90
11284;DHT22;5698;47.332;11.180;2024-01-25T13:51:09;3.60;99.90
11284;DHT22;5698;47.332;11.180;2024-01-25T13:53:36;3.60;99.90
11284;DHT22;5698;47.332;11.180;2024-01-25T13:56:03;3.70;99.90
11284;DHT22;5698;47.332;11.180;2024-01-25T13:58:31;3.70;99.90
11284;DHT22;5698;47.332;11.180;2024-01-25T14:00:58;3.70;99.90
11284;DHT22;5698;47.332;11.180;2024-01-25T14:03:25;3.70;99.90
11284;DHT22;5698;47.332;11.180;2024-01-25T14:05:53;3.70;99.90
11284;DHT22;5698;47.332;11.180;2024-01-25T14:08:22;3.70;99.90
11284;DHT22;5698;47.332;11.180;2024-01-25T14:10:49;3.70;99.90
11284;DHT22;5698;47.332;11.180;2024-01-25T14:13:16;3.70;99.90
11284;DHT22;5698;47.332;11.180;2024-01-25T14:15:43;3.70;99.90
11284;DHT22;5698;47.332;11.180;2024-01-25T14:18:10;3.70;99.90
11284;DHT22;5698;47.332;11.180;2024-01-25T14:20:37;3.70;99.90
11284;DHT22;5698;47.332;11.180;2024-01-25T14:23:05;3.70;99.90
11284;DHT22;5698;47.332;11.180;2024-01-25T14:25:32;3.70;99.90
11284;DHT22;5698;47.332;11.180;2024-01-25T14:27:59;3.70;99.90
11284;DHT22;5698;47.332;11.180;2024-01-25T14:30:26;3.70;99.90
11284;DHT22;5698;47.332;11.180;2024-01-25T14:32:54;3.70;99.90
11284;DHT22;5698;47.332;11.180;2024-01-25T14:35:22;3.70;99.90
11284;DHT22;5698;47.332;11.180;2024-01-25T14:37:53;3.70;99.90
11284;DHT22;5698;47.332;11.180;2024-01-25T14:40:22;3.70;99.90
11284;DHT22;5698;47.332;11.180;2024-01-25T14:42:49;3.70;99.90
11284;DHT22;5698;47.332;11.180;2024-01-25T14:45:16;3.70;99.90
11284;DHT22;5698;47.332;11.180;2024-01-25T14:47:43;3.70;99.90
11284;DHT22;5698;47.332;11.180;2024-01-25T14:50:10;3.70;99.90
11284;DHT22;5698;47.332;11.180;2024-01-25T14:52:37;3.70;99.90
11284;DHT22;5698;47.332;11.180;2024-01-25T14:55:05;3.70;99.90
11284;DHT22;5698;47.332;11.180;2024-01-25T14:57:33;3.60;99.90
11284;DHT22;5698;47.332;11.180;2024-01-25T15:00:00;3.60;99.90
11284;DHT22;5698;47.332;11.180;2024-01-25T15:02:27;3.60;99.90
11284;DHT22;5698;47.332;11.180;2024-01-25T15:04:54;3.60;99.90
11284;DHT22;5698;47.332;11.180;2024-01-25T15:07:21;3.60;99.90
11284;DHT22;5698;47.332;11.180;2024-01-25T15:09:49;3.60;99.90
11284;DHT22;5698;47.332;11.180;2024-01-25T15:12:16;3.60;99.90
11284;DHT22;5698;47.332;11.180;2024-01-25T15:14:45;3.50;99.90
11284;DHT22;5698;47.332;11.180;2024-01-25T15:17:12;3.60;99.90
11284;DHT22;5698;47.332;11.180;2024-01-25T15:19:39;3.50;99.90
11284;DHT22;5698;47.332;11.180;2024-01-25T15:22:06;3.50;99.90
11284;DHT22;5698;47.332;11.180;2024-01-25T15:24:34;3.50;99.90
11284;DHT22;5698;47.332;11.180;2024-01-25T15:27:01;3.50;99.90
11284;DHT22;5698;47.332;11.180;2024-01-25T15:29:28;3.50;99.90
11284;DHT22;5698;47.332;11.180;2024-01-25T15:31:56;3.50;99.90
11284;DHT22;5698;47.332;11.180;2024-01-25T15:34:23;3.40;99.90
11284;DHT22;5698;47.332;11.180;2024-01-25T15:36:50;3.40;99.90
11284;DHT22;5698;47.332;11.180;2024-01-25T15:39:17;3.40;99.90
11284;DHT22;5698;47.332;11.180;2024-01-25T15:41:44;3.40;99.90
11284;DHT22;5698;47.332;11.180;2024-01-25T15:44:15;3.40;99.90
11284;DHT22;5698;47.332;11.180;2024-01-25T15:46:42;3.40;99.90